sensor_id;sensor_type;location;lat;lon;timestamp;pressure;altitude;pressure_sealevel;temperature
58102;BMP280;52034;51.926;6.320;2023-07-30T00:00:11;100818.88;;;17.78
58102;BMP280;52034;51.926;6.320;2023-07-30T00:01:12;100837.38;;;17.83
58102;BMP280;52034;51.926;6.320;2023-07-30T00:02:12;100828.16;;;17.83
58102;BMP280;52034;51.926;6.320;2023-07-30T00:03:13;100829.56;;;17.80
58102;BMP280;52034;51.926;6.320;2023-07-30T00:04:13;100838.06;;;17.80
58102;BMP280;52034;51.926;6.320;2023-07-30T00:05:13;100824.63;;;17.84
58102;BMP280;52034;51.926;6.320;2023-07-30T00:06:14;100828.09;;;17.77
58102;BMP280;52034;51.926;6.320;2023-07-30T00:07:14;100833.09;;;17.78
58102;BMP280;52034;51.926;6.320;2023-07-30T00:08:14;100837.38;;;17.83
58102;BMP280;52034;51.926;6.320;2023-07-30T00:09:15;100840.16;;;17.77
58102;BMP280;52034;51.926;6.320;2023-07-30T00:10:15;100836.66;;;17.81
58102;BMP280;52034;51.926;6.320;2023-07-30T00:11:15;100830.94;;;17.77
58102;BMP280;52034;51.926;6.320;2023-07-30T00:12:16;100832.38;;;17.77
58102;BMP280;52034;51.926;6.320;2023-07-30T00:13:16;100835.88;;;17.74
58102;BMP280;52034;51.926;6.320;2023-07-30T00:14:16;100833.78;;;17.75
58102;BMP280;52034;51.926;6.320;2023-07-30T00:15:17;100832.28;;;17.68
58102;BMP280;52034;51.926;6.320;2023-07-30T00:16:17;100830.22;;;17.74
58102;BMP280;52034;51.926;6.320;2023-07-30T00:17:17;100829.50;;;17.76
58102;BMP280;52034;51.926;6.320;2023-07-30T00:18:18;100828.09;;;17.73
58102;BMP280;52034;51.926;6.320;2023-07-30T00:19:18;100830.25;;;17.78
58102;BMP280;52034;51.926;6.320;2023-07-30T00:20:19;100825.97;;;17.77
58102;BMP280;52034;51.926;6.320;2023-07-30T00:21:20;100823.81;;;17.74
58102;BMP280;52034;51.926;6.320;2023-07-30T00:22:20;100822.34;;;17.65
58102;BMP280;52034;51.926;6.320;2023-07-30T00:23:20;100825.19;;;17.69
58102;BMP280;52034;51.926;6.320;2023-07-30T00:24:21;100825.94;;;17.69
58102;BMP280;52034;51.926;6.320;2023-07-30T00:25:21;100823.78;;;17.72
58102;BMP280;52034;51.926;6.320;2023-07-30T00:26:22;100833.75;;;17.73
58102;BMP280;52034;51.926;6.320;2023-07-30T00:27:24;100833.03;;;17.74
58102;BMP280;52034;51.926;6.320;2023-07-30T00:28:24;100831.56;;;17.67
58102;BMP280;52034;51.926;6.320;2023-07-30T00:29:24;100829.44;;;17.66
58102;BMP280;52034;51.926;6.320;2023-07-30T00:30:25;100827.28;;;17.64
58102;BMP280;52034;51.926;6.320;2023-07-30T00:31:25;100828.72;;;17.63
58102;BMP280;52034;51.926;6.320;2023-07-30T00:32:25;100829.44;;;17.64
58102;BMP280;52034;51.926;6.320;2023-07-30T00:33:26;100833.03;;;17.68
58102;BMP280;52034;51.926;6.320;2023-07-30T00:34:26;100827.34;;;17.66
58102;BMP280;52034;51.926;6.320;2023-07-30T00:35:27;100839.44;;;17.75
58102;BMP280;52034;51.926;6.320;2023-07-30T00:36:28;100832.31;;;17.72
58102;BMP280;52034;51.926;6.320;2023-07-30T00:37:28;100835.91;;;17.76
58102;BMP280;52034;51.926;6.320;2023-07-30T00:38:29;100834.47;;;17.73
58102;BMP280;52034;51.926;6.320;2023-07-30T00:39:30;100829.47;;;17.72
58102;BMP280;52034;51.926;6.320;2023-07-30T00:40:30;100838.72;;;17.72
58102;BMP280;52034;51.926;6.320;2023-07-30T00:41:31;100838.00;;;17.72
58102;BMP280;52034;51.926;6.320;2023-07-30T00:42:31;100830.91;;;17.67
58102;BMP280;52034;51.926;6.320;2023-07-30T00:43:32;100837.22;;;17.63
58102;BMP280;52034;51.926;6.320;2023-07-30T00:44:33;100833.69;;;17.65
58102;BMP280;52034;51.926;6.320;2023-07-30T00:45:34;100827.28;;;17.60
58102;BMP280;52034;51.926;6.320;2023-07-30T00:46:35;100825.88;;;17.63
58102;BMP280;52034;51.926;6.320;2023-07-30T00:47:38;100832.97;;;17.64
58102;BMP280;52034;51.926;6.320;2023-07-30T00:48:39;100828.00;;;17.61
58102;BMP280;52034;51.926;6.320;2023-07-30T00:49:39;100835.81;;;17.62
58102;BMP280;52034;51.926;6.320;2023-07-30T00:50:40;100834.34;;;17.57
58102;BMP280;52034;51.926;6.320;2023-07-30T00:51:41;100830.81;;;17.57
58102;BMP280;52034;51.926;6.320;2023-07-30T00:52:42;100828.69;;;17.59
58102;BMP280;52034;51.926;6.320;2023-07-30T00:53:43;100832.25;;;17.60
58102;BMP280;52034;51.926;6.320;2023-07-30T00:54:44;100836.53;;;17.61
58102;BMP280;52034;51.926;6.320;2023-07-30T00:55:45;100835.81;;;17.62
58102;BMP280;52034;51.926;6.320;2023-07-30T00:56:51;100834.34;;;17.57
58102;BMP280;52034;51.926;6.320;2023-07-30T00:57:52;100833.66;;;17.59
58102;BMP280;52034;51.926;6.320;2023-07-30T00:58:53;100839.34;;;17.61
58102;BMP280;52034;51.926;6.320;2023-07-30T00:59:53;100834.38;;;17.59
58102;BMP280;52034;51.926;6.320;2023-07-30T01:00:54;100832.19;;;17.54
58102;BMP280;52034;51.926;6.320;2023-07-30T01:01:57;100836.41;;;17.53
58102;BMP280;52034;51.926;6.320;2023-07-30T01:02:57;100832.16;;;17.50
58102;BMP280;52034;51.926;6.320;2023-07-30T01:03:58;100841.41;;;17.54
58102;BMP280;52034;51.926;6.320;2023-07-30T01:05:00;100837.88;;;17.52
58102;BMP280;52034;51.926;6.320;2023-07-30T01:06:01;100842.13;;;17.51
58102;BMP280;52034;51.926;6.320;2023-07-30T01:07:02;100847.09;;;17.52
58102;BMP280;52034;51.926;6.320;2023-07-30T01:08:02;100840.03;;;17.55
58102;BMP280;52034;51.926;6.320;2023-07-30T01:09:03;100843.56;;;17.54
58102;BMP280;52034;51.926;6.320;2023-07-30T01:10:03;100846.34;;;17.50
58102;BMP280;52034;51.926;6.320;2023-07-30T01:11:05;100847.06;;;17.48
58102;BMP280;52034;51.926;6.320;2023-07-30T01:12:06;100848.47;;;17.47
58102;BMP280;52034;51.926;6.320;2023-07-30T01:13:08;100848.47;;;17.45
58102;BMP280;52034;51.926;6.320;2023-07-30T01:14:10;100845.56;;;17.41
58102;BMP280;52034;51.926;6.320;2023-07-30T01:15:12;100847.72;;;17.41
58102;BMP280;52034;51.926;6.320;2023-07-30T01:16:13;100850.56;;;17.43
58102;BMP280;52034;51.926;6.320;2023-07-30T01:17:13;100840.50;;;17.30
58102;BMP280;52034;51.926;6.320;2023-07-30T01:18:13;100846.22;;;17.36
58102;BMP280;52034;51.926;6.320;2023-07-30T01:19:14;100850.50;;;17.37
58102;BMP280;52034;51.926;6.320;2023-07-30T01:20:14;100844.81;;;17.35
58102;BMP280;52034;51.926;6.320;2023-07-30T01:21:15;100849.78;;;17.36
58102;BMP280;52034;51.926;6.320;2023-07-30T01:22:16;100849.81;;;17.38
58102;BMP280;52034;51.926;6.320;2023-07-30T01:23:16;100854.78;;;17.38
58102;BMP280;52034;51.926;6.320;2023-07-30T01:24:16;100852.63;;;17.36
58102;BMP280;52034;51.926;6.320;2023-07-30T01:25:18;100851.91;;;17.34
58102;BMP280;52034;51.926;6.320;2023-07-30T01:26:24;100853.34;;;17.37
58102;BMP280;52034;51.926;6.320;2023-07-30T01:27:32;100854.75;;;17.36
58102;BMP280;52034;51.926;6.320;2023-07-30T01:28:37;100850.47;;;17.33
58102;BMP280;52034;51.926;6.320;2023-07-30T01:29:43;100856.16;;;17.35
58102;BMP280;52034;51.926;6.320;2023-07-30T01:30:45;100851.84;;;17.30
58102;BMP280;52034;51.926;6.320;2023-07-30T01:31:52;100853.97;;;17.27
58102;BMP280;52034;51.926;6.320;2023-07-30T01:32:55;100861.75;;;17.27
58102;BMP280;52034;51.926;6.320;2023-07-30T01:33:56;100848.91;;;17.20
58102;BMP280;52034;51.926;6.320;2023-07-30T01:34:57;100859.56;;;17.21
58102;BMP280;52034;51.926;6.320;2023-07-30T01:36:00;100861.75;;;17.25
58102;BMP280;52034;51.926;6.320;2023-07-30T01:37:02;100852.53;;;17.26
58102;BMP280;52034;51.926;6.320;2023-07-30T01:38:03;100853.19;;;17.21
58102;BMP280;52034;51.926;6.320;2023-07-30T01:39:05;100863.13;;;17.24
58102;BMP280;52034;51.926;6.320;2023-07-30T01:40:07;100866.00;;;17.26
58102;BMP280;52034;51.926;6.320;2023-07-30T01:41:09;100864.56;;;17.23
58102;BMP280;52034;51.926;6.320;2023-07-30T01:42:12;100863.13;;;17.24
58102;BMP280;52034;51.926;6.320;2023-07-30T01:43:12;100857.47;;;17.22
58102;BMP280;52034;51.926;6.320;2023-07-30T01:44:13;100858.88;;;17.23
58102;BMP280;52034;51.926;6.320;2023-07-30T01:45:13;100863.16;;;17.26
58102;BMP280;52034;51.926;6.320;2023-07-30T01:46:13;100863.13;;;17.22
58102;BMP280;52034;51.926;6.320;2023-07-30T01:47:14;100861.66;;;17.17
58102;BMP280;52034;51.926;6.320;2023-07-30T01:48:14;100858.13;;;17.16
58102;BMP280;52034;51.926;6.320;2023-07-30T01:49:15;100862.34;;;17.15
58102;BMP280;52034;51.926;6.320;2023-07-30T01:50:15;100869.50;;;17.18
58102;BMP280;52034;51.926;6.320;2023-07-30T01:51:15;100859.53;;;17.13
58102;BMP280;52034;51.926;6.320;2023-07-30T01:52:16;100858.78;;;17.13
58102;BMP280;52034;51.926;6.320;2023-07-30T01:53:16;100860.22;;;17.12
58102;BMP280;52034;51.926;6.320;2023-07-30T01:54:17;100862.31;;;17.11
58102;BMP280;52034;51.926;6.320;2023-07-30T01:55:17;100860.97;;;17.16
58102;BMP280;52034;51.926;6.320;2023-07-30T01:56:20;100865.94;;;17.18
58102;BMP280;52034;51.926;6.320;2023-07-30T01:57:20;100863.06;;;17.16
58102;BMP280;52034;51.926;6.320;2023-07-30T01:58:21;100865.25;;;17.19
58102;BMP280;52034;51.926;6.320;2023-07-30T01:59:21;100868.00;;;17.11
58102;BMP280;52034;51.926;6.320;2023-07-30T02:00:22;100855.94;;;17.09
58102;BMP280;52034;51.926;6.320;2023-07-30T02:01:22;100860.13;;;17.06
58102;BMP280;52034;51.926;6.320;2023-07-30T02:02:23;100862.97;;;17.06
58102;BMP280;52034;51.926;6.320;2023-07-30T02:03:23;100862.31;;;17.11
58102;BMP280;52034;51.926;6.320;2023-07-30T02:04:23;100863.03;;;17.12
58102;BMP280;52034;51.926;6.320;2023-07-30T02:05:24;100863.03;;;17.12
58102;BMP280;52034;51.926;6.320;2023-07-30T02:06:24;100857.38;;;17.12
58102;BMP280;52034;51.926;6.320;2023-07-30T02:07:25;100865.16;;;17.11
58102;BMP280;52034;51.926;6.320;2023-07-30T02:08:25;100860.88;;;17.10
58102;BMP280;52034;51.926;6.320;2023-07-30T02:09:26;100865.84;;;17.08
58102;BMP280;52034;51.926;6.320;2023-07-30T02:10:26;100857.28;;;17.04
58102;BMP280;52034;51.926;6.320;2023-07-30T02:11:26;100851.59;;;17.02
58102;BMP280;52034;51.926;6.320;2023-07-30T02:12:28;100861.59;;;17.09
58102;BMP280;52034;51.926;6.320;2023-07-30T02:13:29;100863.00;;;17.08
58102;BMP280;52034;51.926;6.320;2023-07-30T02:14:29;100860.22;;;17.12
58102;BMP280;52034;51.926;6.320;2023-07-30T02:15:34;100855.81;;;16.99
58102;BMP280;52034;51.926;6.320;2023-07-30T02:16:35;100866.53;;;17.06
58102;BMP280;52034;51.926;6.320;2023-07-30T02:17:35;100864.44;;;17.09
58102;BMP280;52034;51.926;6.320;2023-07-30T02:18:35;100857.34;;;17.08
58102;BMP280;52034;51.926;6.320;2023-07-30T02:19:36;100850.94;;;17.07
58102;BMP280;52034;51.926;6.320;2023-07-30T02:20:36;100858.06;;;17.10
58102;BMP280;52034;51.926;6.320;2023-07-30T02:21:36;100860.88;;;17.10
58102;BMP280;52034;51.926;6.320;2023-07-30T02:22:41;100861.53;;;17.05
58102;BMP280;52034;51.926;6.320;2023-07-30T02:23:42;100860.88;;;17.08
58102;BMP280;52034;51.926;6.320;2023-07-30T02:24:42;100859.47;;;17.09
58102;BMP280;52034;51.926;6.320;2023-07-30T02:25:42;100856.56;;;17.05
58102;BMP280;52034;51.926;6.320;2023-07-30T02:26:43;100861.59;;;17.09
58102;BMP280;52034;51.926;6.320;2023-07-30T02:27:44;100854.50;;;17.08
58102;BMP280;52034;51.926;6.320;2023-07-30T02:28:44;100859.41;;;17.05
58102;BMP280;52034;51.926;6.320;2023-07-30T02:29:44;100855.22;;;17.10
58102;BMP280;52034;51.926;6.320;2023-07-30T02:30:45;100863.72;;;17.10
58102;BMP280;52034;51.926;6.320;2023-07-30T02:31:45;100856.56;;;17.05
58102;BMP280;52034;51.926;6.320;2023-07-30T02:32:46;100855.88;;;17.07
58102;BMP280;52034;51.926;6.320;2023-07-30T02:33:46;100854.44;;;17.04
58102;BMP280;52034;51.926;6.320;2023-07-30T02:34:47;100854.50;;;17.08
58102;BMP280;52034;51.926;6.320;2023-07-30T02:35:47;100857.97;;;17.04
58102;BMP280;52034;51.926;6.320;2023-07-30T02:36:49;100856.53;;;17.01
58102;BMP280;52034;51.926;6.320;2023-07-30T02:37:49;100857.31;;;17.06
58102;BMP280;52034;51.926;6.320;2023-07-30T02:38:50;100855.81;;;16.99
58102;BMP280;52034;51.926;6.320;2023-07-30T02:39:50;100857.94;;;17.00
58102;BMP280;52034;51.926;6.320;2023-07-30T02:40:50;100862.13;;;16.95
58102;BMP280;52034;51.926;6.320;2023-07-30T02:41:51;100857.19;;;16.96
58102;BMP280;52034;51.926;6.320;2023-07-30T02:42:51;100855.81;;;16.99
58102;BMP280;52034;51.926;6.320;2023-07-30T02:43:52;100856.53;;;16.99
58102;BMP280;52034;51.926;6.320;2023-07-30T02:44:52;100870.00;;;16.99
58102;BMP280;52034;51.926;6.320;2023-07-30T02:45:52;100856.44;;;16.91
58102;BMP280;52034;51.926;6.320;2023-07-30T02:46:52;100858.66;;;16.99
58102;BMP280;52034;51.926;6.320;2023-07-30T02:47:53;100856.50;;;16.97
58102;BMP280;52034;51.926;6.320;2023-07-30T02:48:53;100862.91;;;16.98
58102;BMP280;52034;51.926;6.320;2023-07-30T02:49:54;100849.41;;;16.96
58102;BMP280;52034;51.926;6.320;2023-07-30T02:50:54;100854.34;;;16.96
58102;BMP280;52034;51.926;6.320;2023-07-30T02:51:54;100855.09;;;16.96
58102;BMP280;52034;51.926;6.320;2023-07-30T02:52:55;100852.94;;;16.95
58102;BMP280;52034;51.926;6.320;2023-07-30T02:53:57;100848.66;;;16.92
58102;BMP280;52034;51.926;6.320;2023-07-30T02:54:59;100846.44;;;16.86
58102;BMP280;52034;51.926;6.320;2023-07-30T02:56:00;100850.69;;;16.85
58102;BMP280;52034;51.926;6.320;2023-07-30T02:57:00;100850.72;;;16.87
58102;BMP280;52034;51.926;6.320;2023-07-30T02:58:00;100852.81;;;16.83
58102;BMP280;52034;51.926;6.320;2023-07-30T02:59:01;100839.28;;;16.77
58102;BMP280;52034;51.926;6.320;2023-07-30T03:00:02;100844.19;;;16.75
58102;BMP280;52034;51.926;6.320;2023-07-30T03:01:07;100844.19;;;16.75
58102;BMP280;52034;51.926;6.320;2023-07-30T03:02:08;100849.22;;;16.78
58102;BMP280;52034;51.926;6.320;2023-07-30T03:03:09;100850.56;;;16.75
58102;BMP280;52034;51.926;6.320;2023-07-30T03:04:09;100847.06;;;16.77
58102;BMP280;52034;51.926;6.320;2023-07-30T03:05:10;100846.38;;;16.78
58102;BMP280;52034;51.926;6.320;2023-07-30T03:06:10;100844.22;;;16.77
58102;BMP280;52034;51.926;6.320;2023-07-30T03:07:11;100848.50;;;16.80
58102;BMP280;52034;51.926;6.320;2023-07-30T03:08:11;100843.56;;;16.82
58102;BMP280;52034;51.926;6.320;2023-07-30T03:09:11;100854.25;;;16.86
58102;BMP280;52034;51.926;6.320;2023-07-30T03:10:12;100848.56;;;16.84
58102;BMP280;52034;51.926;6.320;2023-07-30T03:11:12;100852.13;;;16.86
58102;BMP280;52034;51.926;6.320;2023-07-30T03:12:13;100852.81;;;16.83
58102;BMP280;52034;51.926;6.320;2023-07-30T03:13:14;100854.94;;;16.86
58102;BMP280;52034;51.926;6.320;2023-07-30T03:14:14;100852.03;;;16.78
58102;BMP280;52034;51.926;6.320;2023-07-30T03:15:15;100861.22;;;16.77
58102;BMP280;52034;51.926;6.320;2023-07-30T03:16:15;100861.22;;;16.77
58102;BMP280;52034;51.926;6.320;2023-07-30T03:17:15;100855.59;;;16.81
58102;BMP280;52034;51.926;6.320;2023-07-30T03:18:16;100852.78;;;16.79
58102;BMP280;52034;51.926;6.320;2023-07-30T03:19:16;100857.00;;;16.78
58102;BMP280;52034;51.926;6.320;2023-07-30T03:20:16;100860.50;;;16.76
58102;BMP280;52034;51.926;6.320;2023-07-30T03:21:17;100852.72;;;16.77
58102;BMP280;52034;51.926;6.320;2023-07-30T03:22:17;100854.09;;;16.72
58102;BMP280;52034;51.926;6.320;2023-07-30T03:23:17;100855.56;;;16.77
58102;BMP280;52034;51.926;6.320;2023-07-30T03:24:18;100860.53;;;16.74
58102;BMP280;52034;51.926;6.320;2023-07-30T03:25:18;100848.38;;;16.70
58102;BMP280;52034;51.926;6.320;2023-07-30T03:26:18;100855.50;;;16.69
58102;BMP280;52034;51.926;6.320;2023-07-30T03:27:19;100853.34;;;16.69
58102;BMP280;52034;51.926;6.320;2023-07-30T03:28:20;100854.03;;;16.68
58102;BMP280;52034;51.926;6.320;2023-07-30T03:29:20;100854.06;;;16.70
58102;BMP280;52034;51.926;6.320;2023-07-30T03:30:20;100858.34;;;16.69
58102;BMP280;52034;51.926;6.320;2023-07-30T03:31:21;100851.94;;;16.68
58102;BMP280;52034;51.926;6.320;2023-07-30T03:32:21;100854.81;;;16.72
58102;BMP280;52034;51.926;6.320;2023-07-30T03:33:23;100856.88;;;16.68
58102;BMP280;52034;51.926;6.320;2023-07-30T03:34:24;100861.78;;;16.65
58102;BMP280;52034;51.926;6.320;2023-07-30T03:35:25;100854.69;;;16.62
58102;BMP280;52034;51.926;6.320;2023-07-30T03:36:25;100862.53;;;16.66
58102;BMP280;52034;51.926;6.320;2023-07-30T03:37:26;100852.56;;;16.63
58102;BMP280;52034;51.926;6.320;2023-07-30T03:38:27;100851.94;;;16.68
58102;BMP280;52034;51.926;6.320;2023-07-30T03:39:28;100849.06;;;16.66
58102;BMP280;52034;51.926;6.320;2023-07-30T03:40:29;100846.97;;;16.71
58102;BMP280;52034;51.926;6.320;2023-07-30T03:41:29;100859.09;;;16.75
58102;BMP280;52034;51.926;6.320;2023-07-30T03:42:29;100855.56;;;16.77
58102;BMP280;52034;51.926;6.320;2023-07-30T03:43:30;100852.69;;;16.73
58102;BMP280;52034;51.926;6.320;2023-07-30T03:44:30;100856.22;;;16.71
58102;BMP280;52034;51.926;6.320;2023-07-30T03:45:30;100854.06;;;16.70
58102;BMP280;52034;51.926;6.320;2023-07-30T03:46:31;100857.69;;;16.74
58102;BMP280;52034;51.926;6.320;2023-07-30T03:47:31;100859.81;;;16.78
58102;BMP280;52034;51.926;6.320;2023-07-30T03:48:32;100853.41;;;16.75
58102;BMP280;52034;51.926;6.320;2023-07-30T03:49:32;100857.00;;;16.78
58102;BMP280;52034;51.926;6.320;2023-07-30T03:50:32;100852.78;;;16.79
58102;BMP280;52034;51.926;6.320;2023-07-30T03:51:33;100860.59;;;16.84
58102;BMP280;52034;51.926;6.320;2023-07-30T03:52:35;100858.50;;;16.85
58102;BMP280;52034;51.926;6.320;2023-07-30T03:53:36;100855.66;;;16.85
58102;BMP280;52034;51.926;6.320;2023-07-30T03:54:36;100856.38;;;16.83
58102;BMP280;52034;51.926;6.320;2023-07-30T03:55:36;100854.31;;;16.92
58102;BMP280;52034;51.926;6.320;2023-07-30T03:56:37;100860.69;;;16.92
58102;BMP280;52034;51.926;6.320;2023-07-30T03:57:37;100858.53;;;16.91
58102;BMP280;52034;51.926;6.320;2023-07-30T03:58:37;100867.06;;;16.91
58102;BMP280;52034;51.926;6.320;2023-07-30T03:59:38;100864.22;;;16.91
58102;BMP280;52034;51.926;6.320;2023-07-30T04:00:38;100868.47;;;16.90
58102;BMP280;52034;51.926;6.320;2023-07-30T04:01:39;100866.38;;;16.94
58102;BMP280;52034;51.926;6.320;2023-07-30T04:02:40;100878.53;;;16.99
58102;BMP280;52034;51.926;6.320;2023-07-30T04:03:40;100867.81;;;16.95
58102;BMP280;52034;51.926;6.320;2023-07-30T04:04:41;100874.25;;;16.98
58102;BMP280;52034;51.926;6.320;2023-07-30T04:05:42;100874.25;;;17.00
58102;BMP280;52034;51.926;6.320;2023-07-30T04:06:42;100868.59;;;16.98
58102;BMP280;52034;51.926;6.320;2023-07-30T04:07:42;100879.97;;;17.02
58102;BMP280;52034;51.926;6.320;2023-07-30T04:08:43;100876.44;;;17.03
58102;BMP280;52034;51.926;6.320;2023-07-30T04:09:43;100874.31;;;17.04
58102;BMP280;52034;51.926;6.320;2023-07-30T04:10:44;100881.47;;;17.09
58102;BMP280;52034;51.926;6.320;2023-07-30T04:11:45;100882.91;;;17.12
58102;BMP280;52034;51.926;6.320;2023-07-30T04:12:45;100890.00;;;17.13
58102;BMP280;52034;51.926;6.320;2023-07-30T04:13:45;100885.75;;;17.14
58102;BMP280;52034;51.926;6.320;2023-07-30T04:14:46;100880.09;;;17.14
58102;BMP280;52034;51.926;6.320;2023-07-30T04:15:49;100885.75;;;17.12
58102;BMP280;52034;51.926;6.320;2023-07-30T04:16:49;100881.41;;;17.07
58102;BMP280;52034;51.926;6.320;2023-07-30T04:17:50;100880.75;;;17.10
58102;BMP280;52034;51.926;6.320;2023-07-30T04:18:50;100892.19;;;17.18
58102;BMP280;52034;51.926;6.320;2023-07-30T04:19:50;100884.41;;;17.21
58102;BMP280;52034;51.926;6.320;2023-07-30T04:20:54;100883.00;;;17.22
58102;BMP280;52034;51.926;6.320;2023-07-30T04:21:55;100880.84;;;17.20
58102;BMP280;52034;51.926;6.320;2023-07-30T04:22:55;100881.59;;;17.23
58102;BMP280;52034;51.926;6.320;2023-07-30T04:23:55;100883.72;;;17.22
58102;BMP280;52034;51.926;6.320;2023-07-30T04:24:56;100885.81;;;17.24
58102;BMP280;52034;51.926;6.320;2023-07-30T04:25:56;100893.66;;;17.23
58102;BMP280;52034;51.926;6.320;2023-07-30T04:26:56;100889.41;;;17.24
58102;BMP280;52034;51.926;6.320;2023-07-30T04:27:57;100897.19;;;17.22
58102;BMP280;52034;51.926;6.320;2023-07-30T04:28:58;100894.34;;;17.22
58102;BMP280;52034;51.926;6.320;2023-07-30T04:29:58;100891.47;;;17.20
58102;BMP280;52034;51.926;6.320;2023-07-30T04:30:58;100895.06;;;17.24
58102;BMP280;52034;51.926;6.320;2023-07-30T04:31:59;100894.38;;;17.26
58102;BMP280;52034;51.926;6.320;2023-07-30T04:32:59;100894.38;;;17.26
58102;BMP280;52034;51.926;6.320;2023-07-30T04:34:01;100889.41;;;17.24
58102;BMP280;52034;51.926;6.320;2023-07-30T04:35:01;100888.00;;;17.23
58102;BMP280;52034;51.926;6.320;2023-07-30T04:36:03;100881.50;;;17.13
58102;BMP280;52034;51.926;6.320;2023-07-30T04:37:04;100900.06;;;17.26
58102;BMP280;52034;51.926;6.320;2023-07-30T04:38:06;100895.81;;;17.27
58102;BMP280;52034;51.926;6.320;2023-07-30T04:39:06;100894.34;;;17.24
58102;BMP280;52034;51.926;6.320;2023-07-30T04:40:08;100897.91;;;17.24
58102;BMP280;52034;51.926;6.320;2023-07-30T04:41:09;100892.31;;;17.30
58102;BMP280;52034;51.926;6.320;2023-07-30T04:42:15;100894.44;;;17.28
58102;BMP280;52034;51.926;6.320;2023-07-30T04:43:16;100896.56;;;17.29
58102;BMP280;52034;51.926;6.320;2023-07-30T04:44:18;100900.81;;;17.30
58102;BMP280;52034;51.926;6.320;2023-07-30T04:45:19;100899.38;;;17.29
58102;BMP280;52034;51.926;6.320;2023-07-30T04:46:21;100901.53;;;17.31
58102;BMP280;52034;51.926;6.320;2023-07-30T04:47:22;100899.38;;;17.29
58102;BMP280;52034;51.926;6.320;2023-07-30T04:48:22;100910.78;;;17.33
58102;BMP280;52034;51.926;6.320;2023-07-30T04:49:23;100900.16;;;17.36
58102;BMP280;52034;51.926;6.320;2023-07-30T04:50:23;100902.28;;;17.33
58102;BMP280;52034;51.926;6.320;2023-07-30T04:51:23;100900.84;;;17.34
58102;BMP280;52034;51.926;6.320;2023-07-30T04:52:24;100910.81;;;17.37
58102;BMP280;52034;51.926;6.320;2023-07-30T04:53:24;100905.84;;;17.36
58102;BMP280;52034;51.926;6.320;2023-07-30T04:54:24;100909.34;;;17.34
58102;BMP280;52034;51.926;6.320;2023-07-30T04:55:25;100909.41;;;17.36
58102;BMP280;52034;51.926;6.320;2023-07-30T04:56:25;100912.94;;;17.39
58102;BMP280;52034;51.926;6.320;2023-07-30T04:57:27;100915.84;;;17.45
58102;BMP280;52034;51.926;6.320;2023-07-30T04:58:27;100915.16;;;17.46
58102;BMP280;52034;51.926;6.320;2023-07-30T04:59:28;100911.63;;;17.48
58102;BMP280;52034;51.926;6.320;2023-07-30T05:00:29;100911.69;;;17.52
58102;BMP280;52034;51.926;6.320;2023-07-30T05:01:30;100911.00;;;17.55
58102;BMP280;52034;51.926;6.320;2023-07-30T05:02:31;100914.53;;;17.56
58102;BMP280;52034;51.926;6.320;2023-07-30T05:03:31;100915.94;;;17.55
58102;BMP280;52034;51.926;6.320;2023-07-30T05:04:32;100916.69;;;17.59
58102;BMP280;52034;51.926;6.320;2023-07-30T05:05:32;100920.91;;;17.52
58102;BMP280;52034;51.926;6.320;2023-07-30T05:06:32;100915.94;;;17.55
58102;BMP280;52034;51.926;6.320;2023-07-30T05:07:33;100920.22;;;17.58
58102;BMP280;52034;51.926;6.320;2023-07-30T05:08:33;100918.09;;;17.56
58102;BMP280;52034;51.926;6.320;2023-07-30T05:09:33;100918.09;;;17.56
58102;BMP280;52034;51.926;6.320;2023-07-30T05:10:34;100912.38;;;17.54
58102;BMP280;52034;51.926;6.320;2023-07-30T05:11:34;100925.88;;;17.56
58102;BMP280;52034;51.926;6.320;2023-07-30T05:12:34;100923.13;;;17.62
58102;BMP280;52034;51.926;6.320;2023-07-30T05:13:35;100933.75;;;17.63
58102;BMP280;52034;51.926;6.320;2023-07-30T05:14:35;100922.41;;;17.63
58102;BMP280;52034;51.926;6.320;2023-07-30T05:15:35;100921.72;;;17.65
58102;BMP280;52034;51.926;6.320;2023-07-30T05:16:36;100928.09;;;17.63
58102;BMP280;52034;51.926;6.320;2023-07-30T05:17:39;100929.47;;;17.60
58102;BMP280;52034;51.926;6.320;2023-07-30T05:18:39;100917.44;;;17.60
58102;BMP280;52034;51.926;6.320;2023-07-30T05:19:40;100919.59;;;17.65
58102;BMP280;52034;51.926;6.320;2023-07-30T05:20:40;100930.97;;;17.65
58102;BMP280;52034;51.926;6.320;2023-07-30T05:21:40;100934.56;;;17.70
58102;BMP280;52034;51.926;6.320;2023-07-30T05:22:41;100936.00;;;17.73
58102;BMP280;52034;51.926;6.320;2023-07-30T05:23:41;100927.47;;;17.73
58102;BMP280;52034;51.926;6.320;2023-07-30T05:24:41;100928.91;;;17.74
58102;BMP280;52034;51.926;6.320;2023-07-30T05:25:42;100928.91;;;17.76
58102;BMP280;52034;51.926;6.320;2023-07-30T05:26:42;100928.91;;;17.76
58102;BMP280;52034;51.926;6.320;2023-07-30T05:27:42;100928.22;;;17.79
58102;BMP280;52034;51.926;6.320;2023-07-30T05:28:43;100930.34;;;17.78
58102;BMP280;52034;51.926;6.320;2023-07-30T05:29:43;100920.41;;;17.81
58102;BMP280;52034;51.926;6.320;2023-07-30T05:30:44;100919.03;;;17.83
58102;BMP280;52034;51.926;6.320;2023-07-30T05:31:44;100921.81;;;17.75
58102;BMP280;52034;51.926;6.320;2023-07-30T05:32:44;100919.69;;;17.77
58102;BMP280;52034;51.926;6.320;2023-07-30T05:33:44;100911.81;;;17.72
58102;BMP280;52034;51.926;6.320;2023-07-30T05:34:45;100908.38;;;17.81
58102;BMP280;52034;51.926;6.320;2023-07-30T05:35:45;100915.53;;;17.88
58102;BMP280;52034;51.926;6.320;2023-07-30T05:36:48;100923.31;;;17.87
58102;BMP280;52034;51.926;6.320;2023-07-30T05:37:48;100913.38;;;17.88
58102;BMP280;52034;51.926;6.320;2023-07-30T05:38:48;100916.28;;;17.94
58102;BMP280;52034;51.926;6.320;2023-07-30T05:39:49;100917.72;;;17.95
58102;BMP280;52034;51.926;6.320;2023-07-30T05:40:49;100922.69;;;17.97
58102;BMP280;52034;51.926;6.320;2023-07-30T05:41:49;100921.25;;;17.96
58102;BMP280;52034;51.926;6.320;2023-07-30T05:42:50;100923.41;;;17.97
58102;BMP280;52034;51.926;6.320;2023-07-30T05:43:50;100927.66;;;17.98
58102;BMP280;52034;51.926;6.320;2023-07-30T05:44:50;100924.84;;;18.00